sensor_id;sensor_type;location;lat;lon;timestamp;P1;durP1;ratioP1;P2;durP2;ratioP2
74894;SDS011;63447;49.446;8.666;2022-11-20T00:00:47;14.13;;;7.45;;
74894;SDS011;63447;49.446;8.666;2022-11-20T00:05:37;12.63;;;6.30;;
74894;SDS011;63447;49.446;8.666;2022-11-20T00:08:03;11.27;;;6.03;;
74894;SDS011;63447;49.446;8.666;2022-11-20T00:10:29;11.98;;;7.05;;
74894;SDS011;63447;49.446;8.666;2022-11-20T00:12:54;12.15;;;6.88;;
74894;SDS011;63447;49.446;8.666;2022-11-20T00:15:19;11.63;;;6.43;;
74894;SDS011;63447;49.446;8.666;2022-11-20T00:17:47;13.95;;;7.15;;
74894;SDS011;63447;49.446;8.666;2022-11-20T00:20:15;12.27;;;6.78;;
74894;SDS011;63447;49.446;8.666;2022-11-20T00:25:08;12.20;;;6.38;;
74894;SDS011;63447;49.446;8.666;2022-11-20T00:29:59;12.57;;;5.90;;
74894;SDS011;63447;49.446;8.666;2022-11-20T00:34:49;12.90;;;6.43;;
74894;SDS011;63447;49.446;8.666;2022-11-20T00:39:42;13.05;;;6.38;;
74894;SDS011;63447;49.446;8.666;2022-11-20T00:44:33;11.03;;;5.47;;
74894;SDS011;63447;49.446;8.666;2022-11-20T00:49:23;12.40;;;5.73;;
74894;SDS011;63447;49.446;8.666;2022-11-20T00:54:14;10.50;;;5.37;;
74894;SDS011;63447;49.446;8.666;2022-11-20T00:59:05;10.77;;;5.68;;
74894;SDS011;63447;49.446;8.666;2022-11-20T01:03:56;13.13;;;6.43;;
74894;SDS011;63447;49.446;8.666;2022-11-20T01:06:27;12.52;;;5.60;;
74894;SDS011;63447;49.446;8.666;2022-11-20T01:09:01;9.40;;;4.80;;
74894;SDS011;63447;49.446;8.666;2022-11-20T01:11:30;11.70;;;5.55;;
74894;SDS011;63447;49.446;8.666;2022-11-20T01:14:00;10.82;;;5.93;;
74894;SDS011;63447;49.446;8.666;2022-11-20T01:16:27;10.82;;;5.75;;
74894;SDS011;63447;49.446;8.666;2022-11-20T01:18:57;9.35;;;5.07;;
74894;SDS011;63447;49.446;8.666;2022-11-20T01:21:26;8.88;;;4.60;;
74894;SDS011;63447;49.446;8.666;2022-11-20T01:23:56;9.45;;;4.93;;
74894;SDS011;63447;49.446;8.666;2022-11-20T01:26:28;9.73;;;5.13;;
74894;SDS011;63447;49.446;8.666;2022-11-20T01:28:58;9.98;;;4.82;;
74894;SDS011;63447;49.446;8.666;2022-11-20T01:31:28;9.15;;;5.00;;
74894;SDS011;63447;49.446;8.666;2022-11-20T01:33:59;8.70;;;5.13;;
74894;SDS011;63447;49.446;8.666;2022-11-20T01:36:36;10.38;;;5.63;;
74894;SDS011;63447;49.446;8.666;2022-11-20T01:39:04;10.20;;;5.57;;
74894;SDS011;63447;49.446;8.666;2022-11-20T01:41:41;8.75;;;4.97;;
74894;SDS011;63447;49.446;8.666;2022-11-20T01:47:43;8.00;;;4.22;;
74894;SDS011;63447;49.446;8.666;2022-11-20T01:52:47;9.38;;;4.70;;
74894;SDS011;63447;49.446;8.666;2022-11-20T01:55:21;9.02;;;4.80;;
74894;SDS011;63447;49.446;8.666;2022-11-20T01:57:51;8.93;;;4.40;;
74894;SDS011;63447;49.446;8.666;2022-11-20T02:02:44;7.85;;;4.57;;
74894;SDS011;63447;49.446;8.666;2022-11-20T02:07:54;8.90;;;4.40;;
74894;SDS011;63447;49.446;8.666;2022-11-20T02:10:27;9.75;;;4.90;;
74894;SDS011;63447;49.446;8.666;2022-11-20T02:12:53;9.98;;;4.70;;
74894;SDS011;63447;49.446;8.666;2022-11-20T02:15:37;10.93;;;4.78;;
74894;SDS011;63447;49.446;8.666;2022-11-20T02:20:30;8.90;;;4.53;;
74894;SDS011;63447;49.446;8.666;2022-11-20T02:22:59;9.68;;;5.10;;
74894;SDS011;63447;49.446;8.666;2022-11-20T02:25:32;11.38;;;6.03;;
74894;SDS011;63447;49.446;8.666;2022-11-20T02:28:00;9.55;;;5.30;;
74894;SDS011;63447;49.446;8.666;2022-11-20T02:32:51;10.30;;;5.90;;
74894;SDS011;63447;49.446;8.666;2022-11-20T02:40:10;9.90;;;5.25;;
74894;SDS011;63447;49.446;8.666;2022-11-20T02:42:36;10.25;;;5.53;;
74894;SDS011;63447;49.446;8.666;2022-11-20T02:47:28;10.73;;;5.25;;
74894;SDS011;63447;49.446;8.666;2022-11-20T02:52:18;10.63;;;5.50;;
74894;SDS011;63447;49.446;8.666;2022-11-20T02:54:44;9.93;;;5.13;;
74894;SDS011;63447;49.446;8.666;2022-11-20T02:59:34;11.00;;;5.80;;
74894;SDS011;63447;49.446;8.666;2022-11-20T03:02:02;9.57;;;5.30;;
74894;SDS011;63447;49.446;8.666;2022-11-20T03:04:30;10.75;;;5.55;;
74894;SDS011;63447;49.446;8.666;2022-11-20T03:06:57;9.90;;;5.68;;
74894;SDS011;63447;49.446;8.666;2022-11-20T03:11:48;10.73;;;5.67;;
74894;SDS011;63447;49.446;8.666;2022-11-20T03:16:39;11.70;;;5.88;;
74894;SDS011;63447;49.446;8.666;2022-11-20T03:21:30;13.20;;;6.07;;
74894;SDS011;63447;49.446;8.666;2022-11-20T03:26:21;13.60;;;6.30;;
74894;SDS011;63447;49.446;8.666;2022-11-20T03:28:52;13.00;;;5.90;;
74894;SDS011;63447;49.446;8.666;2022-11-20T03:31:25;16.40;;;7.05;;
74894;SDS011;63447;49.446;8.666;2022-11-20T03:33:52;14.02;;;7.07;;
74894;SDS011;63447;49.446;8.666;2022-11-20T03:38:43;14.38;;;7.05;;
74894;SDS011;63447;49.446;8.666;2022-11-20T03:41:10;15.88;;;7.45;;
74894;SDS011;63447;49.446;8.666;2022-11-20T03:43:37;15.70;;;7.28;;
74894;SDS011;63447;49.446;8.666;2022-11-20T03:48:28;15.02;;;6.70;;
74894;SDS011;63447;49.446;8.666;2022-11-20T03:51:07;15.77;;;7.85;;
74894;SDS011;63447;49.446;8.666;2022-11-20T03:53:39;15.50;;;8.13;;
74894;SDS011;63447;49.446;8.666;2022-11-20T03:56:10;14.43;;;7.38;;
74894;SDS011;63447;49.446;8.666;2022-11-20T03:58:41;14.27;;;7.45;;
74894;SDS011;63447;49.446;8.666;2022-11-20T04:01:12;15.48;;;7.60;;
74894;SDS011;63447;49.446;8.666;2022-11-20T04:03:41;16.15;;;7.97;;
74894;SDS011;63447;49.446;8.666;2022-11-20T04:06:52;16.90;;;7.90;;
74894;SDS011;63447;49.446;8.666;2022-11-20T04:09:02;15.35;;;7.65;;
74894;SDS011;63447;49.446;8.666;2022-11-20T04:11:29;17.75;;;7.97;;
74894;SDS011;63447;49.446;8.666;2022-11-20T04:13:59;16.25;;;7.63;;
74894;SDS011;63447;49.446;8.666;2022-11-20T04:16:28;16.48;;;8.15;;
74894;SDS011;63447;49.446;8.666;2022-11-20T04:18:57;16.02;;;8.65;;
74894;SDS011;63447;49.446;8.666;2022-11-20T04:21:24;17.88;;;8.65;;
74894;SDS011;63447;49.446;8.666;2022-11-20T04:26:17;15.65;;;7.90;;
74894;SDS011;63447;49.446;8.666;2022-11-20T04:28:46;14.55;;;7.43;;
74894;SDS011;63447;49.446;8.666;2022-11-20T04:31:13;17.60;;;8.13;;
74894;SDS011;63447;49.446;8.666;2022-11-20T04:33:42;16.42;;;8.07;;
74894;SDS011;63447;49.446;8.666;2022-11-20T04:38:42;15.43;;;7.70;;
74894;SDS011;63447;49.446;8.666;2022-11-20T04:43:37;15.70;;;7.72;;
74894;SDS011;63447;49.446;8.666;2022-11-20T04:48:28;16.67;;;8.03;;
74894;SDS011;63447;49.446;8.666;2022-11-20T04:50:54;15.57;;;8.38;;
74894;SDS011;63447;49.446;8.666;2022-11-20T04:55:45;15.70;;;6.88;;
74894;SDS011;63447;49.446;8.666;2022-11-20T05:00:37;14.35;;;7.07;;
74894;SDS011;63447;49.446;8.666;2022-11-20T05:05:27;15.03;;;7.67;;
74894;SDS011;63447;49.446;8.666;2022-11-20T05:10:20;16.85;;;8.00;;
74894;SDS011;63447;49.446;8.666;2022-11-20T05:12:48;14.52;;;7.40;;
74894;SDS011;63447;49.446;8.666;2022-11-20T05:15:16;16.05;;;8.15;;
74894;SDS011;63447;49.446;8.666;2022-11-20T05:20:13;16.05;;;7.97;;
74894;SDS011;63447;49.446;8.666;2022-11-20T05:25:04;16.90;;;8.40;;
74894;SDS011;63447;49.446;8.666;2022-11-20T05:29:55;14.50;;;7.33;;
74894;SDS011;63447;49.446;8.666;2022-11-20T05:32:20;16.63;;;7.57;;
74894;SDS011;63447;49.446;8.666;2022-11-20T05:37:15;17.05;;;7.97;;
74894;SDS011;63447;49.446;8.666;2022-11-20T05:39:40;16.02;;;8.07;;
74894;SDS011;63447;49.446;8.666;2022-11-20T05:44:49;14.93;;;7.88;;
74894;SDS011;63447;49.446;8.666;2022-11-20T05:49:40;17.97;;;8.67;;
74894;SDS011;63447;49.446;8.666;2022-11-20T05:54:30;16.03;;;7.67;;
74894;SDS011;63447;49.446;8.666;2022-11-20T05:59:23;17.80;;;8.27;;
74894;SDS011;63447;49.446;8.666;2022-11-20T06:04:14;15.50;;;7.50;;
74894;SDS011;63447;49.446;8.666;2022-11-20T06:06:41;16.75;;;8.68;;
74894;SDS011;63447;49.446;8.666;2022-11-20T06:09:09;17.23;;;8.30;;
74894;SDS011;63447;49.446;8.666;2022-11-20T06:13:59;16.57;;;8.47;;
74894;SDS011;63447;49.446;8.666;2022-11-20T06:18:50;20.00;;;9.23;;
74894;SDS011;63447;49.446;8.666;2022-11-20T06:21:21;20.13;;;9.77;;
74894;SDS011;63447;49.446;8.666;2022-11-20T06:23:51;21.08;;;9.48;;
74894;SDS011;63447;49.446;8.666;2022-11-20T06:26:21;18.65;;;9.30;;
74894;SDS011;63447;49.446;8.666;2022-11-20T06:28:51;21.02;;;9.95;;
74894;SDS011;63447;49.446;8.666;2022-11-20T06:31:18;20.42;;;10.30;;
74894;SDS011;63447;49.446;8.666;2022-11-20T06:33:45;19.00;;;9.35;;
74894;SDS011;63447;49.446;8.666;2022-11-20T06:38:40;21.23;;;9.10;;
74894;SDS011;63447;49.446;8.666;2022-11-20T06:41:06;21.95;;;9.63;;
74894;SDS011;63447;49.446;8.666;2022-11-20T06:43:35;19.65;;;9.98;;
74894;SDS011;63447;49.446;8.666;2022-11-20T06:48:27;20.67;;;9.77;;
74894;SDS011;63447;49.446;8.666;2022-11-20T06:50:53;20.17;;;9.70;;
74894;SDS011;63447;49.446;8.666;2022-11-20T06:55:47;18.75;;;9.15;;
74894;SDS011;63447;49.446;8.666;2022-11-20T06:58:18;19.48;;;10.02;;
74894;SDS011;63447;49.446;8.666;2022-11-20T07:03:10;22.40;;;10.33;;
74894;SDS011;63447;49.446;8.666;2022-11-20T07:05:36;19.65;;;10.00;;
74894;SDS011;63447;49.446;8.666;2022-11-20T07:08:03;21.35;;;10.38;;
74894;SDS011;63447;49.446;8.666;2022-11-20T07:10:29;18.42;;;9.55;;
74894;SDS011;63447;49.446;8.666;2022-11-20T07:15:21;19.17;;;9.90;;
74894;SDS011;63447;49.446;8.666;2022-11-20T07:17:47;18.42;;;9.07;;
74894;SDS011;63447;49.446;8.666;2022-11-20T07:20:13;17.88;;;9.00;;
74894;SDS011;63447;49.446;8.666;2022-11-20T07:22:41;16.55;;;8.90;;
74894;SDS011;63447;49.446;8.666;2022-11-20T07:25:09;15.43;;;8.05;;
74894;SDS011;63447;49.446;8.666;2022-11-20T07:30:01;29.90;;;14.75;;
74894;SDS011;63447;49.446;8.666;2022-11-20T07:32:30;17.13;;;9.23;;
74894;SDS011;63447;49.446;8.666;2022-11-20T07:37:20;16.97;;;8.30;;
74894;SDS011;63447;49.446;8.666;2022-11-20T07:39:46;15.23;;;7.65;;
74894;SDS011;63447;49.446;8.666;2022-11-20T07:44:39;15.77;;;7.50;;
74894;SDS011;63447;49.446;8.666;2022-11-20T07:47:07;15.73;;;7.85;;
74894;SDS011;63447;49.446;8.666;2022-11-20T07:52:00;15.02;;;7.35;;
74894;SDS011;63447;49.446;8.666;2022-11-20T07:54:29;17.52;;;9.10;;
74894;SDS011;63447;49.446;8.666;2022-11-20T07:56:55;14.52;;;7.40;;
74894;SDS011;63447;49.446;8.666;2022-11-20T08:01:45;19.10;;;9.43;;
74894;SDS011;63447;49.446;8.666;2022-11-20T08:04:13;17.15;;;9.20;;
74894;SDS011;63447;49.446;8.666;2022-11-20T08:06:41;15.57;;;7.90;;
74894;SDS011;63447;49.446;8.666;2022-11-20T08:09:06;15.10;;;7.68;;
74894;SDS011;63447;49.446;8.666;2022-11-20T08:14:15;14.75;;;7.40;;
74894;SDS011;63447;49.446;8.666;2022-11-20T08:19:10;15.90;;;7.90;;
74894;SDS011;63447;49.446;8.666;2022-11-20T08:21:36;14.65;;;7.32;;
74894;SDS011;63447;49.446;8.666;2022-11-20T08:24:02;16.23;;;8.02;;
74894;SDS011;63447;49.446;8.666;2022-11-20T08:26:30;14.48;;;8.07;;
74894;SDS011;63447;49.446;8.666;2022-11-20T08:28:56;14.10;;;7.68;;
74894;SDS011;63447;49.446;8.666;2022-11-20T08:31:25;12.80;;;7.32;;
74894;SDS011;63447;49.446;8.666;2022-11-20T08:33:51;14.70;;;7.53;;
74894;SDS011;63447;49.446;8.666;2022-11-20T08:36:19;12.70;;;7.10;;
74894;SDS011;63447;49.446;8.666;2022-11-20T08:38:48;14.05;;;7.88;;
74894;SDS011;63447;49.446;8.666;2022-11-20T08:41:17;14.75;;;7.30;;
74894;SDS011;63447;49.446;8.666;2022-11-20T08:43:53;13.55;;;7.25;;
74894;SDS011;63447;49.446;8.666;2022-11-20T08:46:24;13.65;;;7.00;;
74894;SDS011;63447;49.446;8.666;2022-11-20T08:48:53;13.85;;;7.32;;
74894;SDS011;63447;49.446;8.666;2022-11-20T08:51:24;13.07;;;7.10;;
74894;SDS011;63447;49.446;8.666;2022-11-20T08:53:49;13.73;;;6.47;;
74894;SDS011;63447;49.446;8.666;2022-11-20T08:56:15;14.00;;;6.87;;
74894;SDS011;63447;49.446;8.666;2022-11-20T08:58:44;14.40;;;7.20;;
74894;SDS011;63447;49.446;8.666;2022-11-20T09:01:11;12.48;;;6.78;;
74894;SDS011;63447;49.446;8.666;2022-11-20T09:03:37;13.80;;;6.82;;
74894;SDS011;63447;49.446;8.666;2022-11-20T09:08:30;14.30;;;7.35;;
74894;SDS011;63447;49.446;8.666;2022-11-20T09:10:56;19.13;;;9.40;;
74894;SDS011;63447;49.446;8.666;2022-11-20T09:13:26;12.75;;;6.43;;
74894;SDS011;63447;49.446;8.666;2022-11-20T09:15:58;18.20;;;8.40;;
74894;SDS011;63447;49.446;8.666;2022-11-20T09:18:25;13.48;;;6.78;;
74894;SDS011;63447;49.446;8.666;2022-11-20T09:21:02;12.88;;;6.55;;
74894;SDS011;63447;49.446;8.666;2022-11-20T09:23:35;12.60;;;6.55;;
74894;SDS011;63447;49.446;8.666;2022-11-20T09:26:05;15.30;;;6.88;;
74894;SDS011;63447;49.446;8.666;2022-11-20T09:28:32;14.13;;;7.35;;
74894;SDS011;63447;49.446;8.666;2022-11-20T09:30:58;16.58;;;8.00;;
74894;SDS011;63447;49.446;8.666;2022-11-20T09:33:24;14.75;;;8.13;;
74894;SDS011;63447;49.446;8.666;2022-11-20T09:35:57;14.48;;;7.57;;
74894;SDS011;63447;49.446;8.666;2022-11-20T09:38:23;16.87;;;8.20;;
74894;SDS011;63447;49.446;8.666;2022-11-20T09:40:58;16.93;;;8.40;;
74894;SDS011;63447;49.446;8.666;2022-11-20T09:43:35;17.00;;;8.80;;
74894;SDS011;63447;49.446;8.666;2022-11-20T09:46:21;17.05;;;8.43;;
74894;SDS011;63447;49.446;8.666;2022-11-20T09:49:03;19.98;;;9.57;;
74894;SDS011;63447;49.446;8.666;2022-11-20T09:51:46;19.63;;;9.65;;
74894;SDS011;63447;49.446;8.666;2022-11-20T09:56:53;17.70;;;9.75;;
74894;SDS011;63447;49.446;8.666;2022-11-20T09:59:26;18.85;;;9.63;;
74894;SDS011;63447;49.446;8.666;2022-11-20T10:01:55;17.92;;;9.65;;
74894;SDS011;63447;49.446;8.666;2022-11-20T10:04:22;18.05;;;9.65;;
74894;SDS011;63447;49.446;8.666;2022-11-20T10:07:00;18.08;;;9.30;;
74894;SDS011;63447;49.446;8.666;2022-11-20T10:09:30;18.17;;;9.95;;
74894;SDS011;63447;49.446;8.666;2022-11-20T10:14:36;18.08;;;10.32;;
74894;SDS011;63447;49.446;8.666;2022-11-20T10:25:20;18.20;;;10.27;;
74894;SDS011;63447;49.446;8.666;2022-11-20T10:30:18;25.00;;;12.27;;
74894;SDS011;63447;49.446;8.666;2022-11-20T10:32:51;20.13;;;11.75;;
74894;SDS011;63447;49.446;8.666;2022-11-20T10:35:32;20.65;;;10.18;;
74894;SDS011;63447;49.446;8.666;2022-11-20T10:38:02;21.70;;;10.35;;
74894;SDS011;63447;49.446;8.666;2022-11-20T10:40:43;22.13;;;10.48;;
74894;SDS011;63447;49.446;8.666;2022-11-20T10:43:16;19.63;;;10.93;;
74894;SDS011;63447;49.446;8.666;2022-11-20T10:48:25;24.80;;;14.20;;
74894;SDS011;63447;49.446;8.666;2022-11-20T10:56:41;23.75;;;11.98;;
74894;SDS011;63447;49.446;8.666;2022-11-20T10:59:28;25.55;;;12.98;;
74894;SDS011;63447;49.446;8.666;2022-11-20T11:02:51;30.00;;;14.50;;
74894;SDS011;63447;49.446;8.666;2022-11-20T11:04:58;28.70;;;16.13;;
74894;SDS011;63447;49.446;8.666;2022-11-20T11:07:45;27.13;;;14.45;;
74894;SDS011;63447;49.446;8.666;2022-11-20T11:12:48;25.70;;;11.93;;
74894;SDS011;63447;49.446;8.666;2022-11-20T11:15:23;25.20;;;11.75;;
74894;SDS011;63447;49.446;8.666;2022-11-20T11:18:04;25.55;;;12.68;;
74894;SDS011;63447;49.446;8.666;2022-11-20T11:20:33;15.13;;;7.97;;
74894;SDS011;63447;49.446;8.666;2022-11-20T11:22:59;19.10;;;9.57;;
74894;SDS011;63447;49.446;8.666;2022-11-20T11:25:31;14.40;;;7.88;;
74894;SDS011;63447;49.446;8.666;2022-11-20T11:30:44;16.75;;;9.07;;
74894;SDS011;63447;49.446;8.666;2022-11-20T11:33:20;14.70;;;7.93;;
74894;SDS011;63447;49.446;8.666;2022-11-20T11:35:51;16.63;;;7.95;;
74894;SDS011;63447;49.446;8.666;2022-11-20T11:38:23;16.00;;;8.13;;
74894;SDS011;63447;49.446;8.666;2022-11-20T11:40:55;15.95;;;8.70;;
74894;SDS011;63447;49.446;8.666;2022-11-20T11:43:23;16.25;;;8.80;;
74894;SDS011;63447;49.446;8.666;2022-11-20T11:49:01;12.95;;;7.32;;
74894;SDS011;63447;49.446;8.666;2022-11-20T11:51:47;15.02;;;8.38;;
74894;SDS011;63447;49.446;8.666;2022-11-20T11:54:18;13.50;;;7.32;;
74894;SDS011;63447;49.446;8.666;2022-11-20T11:56:47;11.98;;;6.57;;
74894;SDS011;63447;49.446;8.666;2022-11-20T11:59:20;13.57;;;6.60;;
74894;SDS011;63447;49.446;8.666;2022-11-20T12:01:57;10.98;;;6.45;;
74894;SDS011;63447;49.446;8.666;2022-11-20T12:07:16;14.25;;;7.03;;
74894;SDS011;63447;49.446;8.666;2022-11-20T12:09:50;13.00;;;6.90;;
74894;SDS011;63447;49.446;8.666;2022-11-20T12:12:24;13.40;;;7.13;;
74894;SDS011;63447;49.446;8.666;2022-11-20T12:14:56;14.10;;;7.15;;
74894;SDS011;63447;49.446;8.666;2022-11-20T12:17:25;12.95;;;7.00;;
74894;SDS011;63447;49.446;8.666;2022-11-20T12:19:53;12.20;;;6.68;;
74894;SDS011;63447;49.446;8.666;2022-11-20T12:30:32;13.20;;;7.47;;
74894;SDS011;63447;49.446;8.666;2022-11-20T12:55:33;15.07;;;9.20;;
74894;SDS011;63447;49.446;8.666;2022-11-20T13:00:43;15.38;;;7.68;;
74894;SDS011;63447;49.446;8.666;2022-11-20T13:08:39;10.68;;;5.57;;
74894;SDS011;63447;49.446;8.666;2022-11-20T13:13:43;12.03;;;6.33;;
74894;SDS011;63447;49.446;8.666;2022-11-20T13:18:40;9.45;;;5.40;;
74894;SDS011;63447;49.446;8.666;2022-11-20T13:24:07;4.65;;;1.73;;
74894;SDS011;63447;49.446;8.666;2022-11-20T13:26:45;6.50;;;1.73;;
74894;SDS011;63447;49.446;8.666;2022-11-20T13:29:12;4.35;;;1.42;;
74894;SDS011;63447;49.446;8.666;2022-11-20T13:31:51;5.63;;;1.40;;
74894;SDS011;63447;49.446;8.666;2022-11-20T13:34:31;3.95;;;1.35;;
74894;SDS011;63447;49.446;8.666;2022-11-20T13:36:57;6.07;;;1.40;;
74894;SDS011;63447;49.446;8.666;2022-11-20T13:44:50;5.10;;;1.50;;
74894;SDS011;63447;49.446;8.666;2022-11-20T13:47:22;6.00;;;1.40;;
74894;SDS011;63447;49.446;8.666;2022-11-20T13:49:49;7.05;;;2.03;;
74894;SDS011;63447;49.446;8.666;2022-11-20T14:00:44;4.15;;;1.40;;
74894;SDS011;63447;49.446;8.666;2022-11-20T14:03:18;4.72;;;1.60;;
74894;SDS011;63447;49.446;8.666;2022-11-20T14:05:57;6.20;;;1.10;;
74894;SDS011;63447;49.446;8.666;2022-11-20T14:08:39;3.60;;;1.00;;
74894;SDS011;63447;49.446;8.666;2022-11-20T14:11:18;4.75;;;1.02;;
74894;SDS011;63447;49.446;8.666;2022-11-20T14:14:19;6.30;;;1.00;;
74894;SDS011;63447;49.446;8.666;2022-11-20T14:16:41;4.00;;;1.00;;
74894;SDS011;63447;49.446;8.666;2022-11-20T14:24:26;5.47;;;1.00;;
74894;SDS011;63447;49.446;8.666;2022-11-20T14:26:54;3.97;;;0.90;;
74894;SDS011;63447;49.446;8.666;2022-11-20T14:29:21;4.15;;;1.15;;
74894;SDS011;63447;49.446;8.666;2022-11-20T14:31:52;5.88;;;1.00;;
74894;SDS011;63447;49.446;8.666;2022-11-20T14:34:20;3.60;;;0.98;;
74894;SDS011;63447;49.446;8.666;2022-11-20T14:36:48;3.75;;;1.10;;
74894;SDS011;63447;49.446;8.666;2022-11-20T14:39:20;6.13;;;1.60;;
74894;SDS011;63447;49.446;8.666;2022-11-20T14:41:50;4.30;;;1.08;;
74894;SDS011;63447;49.446;8.666;2022-11-20T14:44:16;3.50;;;1.50;;
74894;SDS011;63447;49.446;8.666;2022-11-20T14:46:42;5.20;;;1.17;;
74894;SDS011;63447;49.446;8.666;2022-11-20T14:49:08;4.43;;;1.17;;
74894;SDS011;63447;49.446;8.666;2022-11-20T14:51:36;5.35;;;1.27;;
74894;SDS011;63447;49.446;8.666;2022-11-20T14:54:16;92.55;;;5.72;;
74894;SDS011;63447;49.446;8.666;2022-11-20T14:56:55;3.33;;;1.02;;
74894;SDS011;63447;49.446;8.666;2022-11-20T14:59:23;5.80;;;1.65;;
74894;SDS011;63447;49.446;8.666;2022-11-20T15:02:03;5.28;;;1.73;;
74894;SDS011;63447;49.446;8.666;2022-11-20T15:04:45;6.13;;;1.10;;
74894;SDS011;63447;49.446;8.666;2022-11-20T15:07:36;4.50;;;1.10;;
74894;SDS011;63447;49.446;8.666;2022-11-20T15:10:11;5.75;;;1.17;;
74894;SDS011;63447;49.446;8.666;2022-11-20T15:12:53;4.68;;;1.20;;
74894;SDS011;63447;49.446;8.666;2022-11-20T15:15:32;4.88;;;1.20;;
74894;SDS011;63447;49.446;8.666;2022-11-20T15:17:58;4.90;;;1.70;;
74894;SDS011;63447;49.446;8.666;2022-11-20T15:20:31;5.18;;;2.15;;
74894;SDS011;63447;49.446;8.666;2022-11-20T15:22:58;12.38;;;5.47;;
74894;SDS011;63447;49.446;8.666;2022-11-20T15:25:23;14.55;;;6.05;;
74894;SDS011;63447;49.446;8.666;2022-11-20T15:27:50;19.23;;;10.88;;
74894;SDS011;63447;49.446;8.666;2022-11-20T15:30:20;13.93;;;6.85;;
74894;SDS011;63447;49.446;8.666;2022-11-20T15:32:45;16.08;;;8.55;;
74894;SDS011;63447;49.446;8.666;2022-11-20T15:35:12;19.38;;;10.52;;
74894;SDS011;63447;49.446;8.666;2022-11-20T15:37:38;26.67;;;12.98;;
74894;SDS011;63447;49.446;8.666;2022-11-20T15:40:06;18.35;;;10.55;;
74894;SDS011;63447;49.446;8.666;2022-11-20T15:42:35;16.70;;;9.90;;
74894;SDS011;63447;49.446;8.666;2022-11-20T15:45:01;17.40;;;9.43;;
74894;SDS011;63447;49.446;8.666;2022-11-20T15:47:28;29.02;;;13.38;;
74894;SDS011;63447;49.446;8.666;2022-11-20T15:49:58;21.90;;;9.35;;
74894;SDS011;63447;49.446;8.666;2022-11-20T15:52:24;8.57;;;3.53;;
74894;SDS011;63447;49.446;8.666;2022-11-20T15:54:49;8.30;;;3.00;;
74894;SDS011;63447;49.446;8.666;2022-11-20T15:57:14;10.47;;;3.93;;
74894;SDS011;63447;49.446;8.666;2022-11-20T15:59:40;9.38;;;4.25;;
74894;SDS011;63447;49.446;8.666;2022-11-20T16:02:13;7.72;;;3.70;;
74894;SDS011;63447;49.446;8.666;2022-11-20T16:04:39;7.53;;;3.55;;
74894;SDS011;63447;49.446;8.666;2022-11-20T16:07:07;7.90;;;2.78;;
74894;SDS011;63447;49.446;8.666;2022-11-20T16:09:33;6.38;;;3.00;;
74894;SDS011;63447;49.446;8.666;2022-11-20T16:11:59;6.30;;;2.53;;
74894;SDS011;63447;49.446;8.666;2022-11-20T16:14:25;5.03;;;2.00;;
74894;SDS011;63447;49.446;8.666;2022-11-20T16:17:10;7.28;;;2.47;;
74894;SDS011;63447;49.446;8.666;2022-11-20T16:19:35;6.20;;;2.08;;
74894;SDS011;63447;49.446;8.666;2022-11-20T16:22:01;8.05;;;2.15;;
74894;SDS011;63447;49.446;8.666;2022-11-20T16:24:26;5.53;;;2.10;;
74894;SDS011;63447;49.446;8.666;2022-11-20T16:26:55;5.50;;;2.00;;
74894;SDS011;63447;49.446;8.666;2022-11-20T16:29:20;8.40;;;2.25;;
74894;SDS011;63447;49.446;8.666;2022-11-20T16:31:46;5.57;;;1.90;;
74894;SDS011;63447;49.446;8.666;2022-11-20T16:34:15;6.25;;;2.75;;
74894;SDS011;63447;49.446;8.666;2022-11-20T16:36:46;5.57;;;2.22;;
74894;SDS011;63447;49.446;8.666;2022-11-20T16:39:12;6.68;;;2.35;;
74894;SDS011;63447;49.446;8.666;2022-11-20T16:41:40;5.28;;;2.45;;
74894;SDS011;63447;49.446;8.666;2022-11-20T16:44:09;6.77;;;2.47;;
74894;SDS011;63447;49.446;8.666;2022-11-20T16:46:35;7.40;;;3.25;;
74894;SDS011;63447;49.446;8.666;2022-11-20T16:49:04;8.85;;;4.60;;
74894;SDS011;63447;49.446;8.666;2022-11-20T16:51:31;7.20;;;3.55;;
74894;SDS011;63447;49.446;8.666;2022-11-20T16:54:02;6.90;;;3.13;;
74894;SDS011;63447;49.446;8.666;2022-11-20T16:56:29;8.38;;;2.92;;
74894;SDS011;63447;49.446;8.666;2022-11-20T16:58:55;7.45;;;3.10;;
74894;SDS011;63447;49.446;8.666;2022-11-20T17:01:23;6.72;;;3.03;;
74894;SDS011;63447;49.446;8.666;2022-11-20T17:06:29;7.22;;;3.22;;
74894;SDS011;63447;49.446;8.666;2022-11-20T17:08:56;8.27;;;3.05;;
74894;SDS011;63447;49.446;8.666;2022-11-20T17:11:25;7.93;;;2.70;;
74894;SDS011;63447;49.446;8.666;2022-11-20T17:13:56;7.22;;;2.50;;
74894;SDS011;63447;49.446;8.666;2022-11-20T17:16:26;6.47;;;2.63;;
74894;SDS011;63447;49.446;8.666;2022-11-20T17:18:56;7.05;;;2.50;;
74894;SDS011;63447;49.446;8.666;2022-11-20T17:21:23;6.68;;;3.33;;
74894;SDS011;63447;49.446;8.666;2022-11-20T17:23:48;8.13;;;3.15;;
74894;SDS011;63447;49.446;8.666;2022-11-20T17:26:21;7.47;;;2.70;;
74894;SDS011;63447;49.446;8.666;2022-11-20T17:31:26;6.68;;;2.55;;
74894;SDS011;63447;49.446;8.666;2022-11-20T17:33:52;8.95;;;4.72;;
74894;SDS011;63447;49.446;8.666;2022-11-20T17:36:20;9.13;;;3.85;;
74894;SDS011;63447;49.446;8.666;2022-11-20T17:38:52;7.15;;;2.50;;
74894;SDS011;63447;49.446;8.666;2022-11-20T17:41:19;9.73;;;3.03;;
74894;SDS011;63447;49.446;8.666;2022-11-20T17:43:51;7.95;;;2.80;;
74894;SDS011;63447;49.446;8.666;2022-11-20T17:46:22;7.78;;;3.13;;
74894;SDS011;63447;49.446;8.666;2022-11-20T17:48:49;6.00;;;2.70;;
74894;SDS011;63447;49.446;8.666;2022-11-20T17:51:18;7.07;;;2.97;;
74894;SDS011;63447;49.446;8.666;2022-11-20T17:53:46;5.40;;;1.83;;
74894;SDS011;63447;49.446;8.666;2022-11-20T17:56:14;5.45;;;2.05;;
74894;SDS011;63447;49.446;8.666;2022-11-20T17:58:59;5.65;;;2.30;;
74894;SDS011;63447;49.446;8.666;2022-11-20T18:01:28;5.88;;;2.00;;
74894;SDS011;63447;49.446;8.666;2022-11-20T18:03:55;5.77;;;1.90;;
74894;SDS011;63447;49.446;8.666;2022-11-20T18:06:24;5.90;;;2.15;;
74894;SDS011;63447;49.446;8.666;2022-11-20T18:08:51;5.45;;;2.00;;
74894;SDS011;63447;49.446;8.666;2022-11-20T18:11:21;4.78;;;1.98;;
74894;SDS011;63447;49.446;8.666;2022-11-20T18:13:49;5.97;;;1.77;;
74894;SDS011;63447;49.446;8.666;2022-11-20T18:16:36;5.28;;;2.10;;
74894;SDS011;63447;49.446;8.666;2022-11-20T18:19:07;9.30;;;3.50;;
74894;SDS011;63447;49.446;8.666;2022-11-20T18:21:33;7.05;;;2.45;;
74894;SDS011;63447;49.446;8.666;2022-11-20T18:23:58;6.43;;;2.05;;
74894;SDS011;63447;49.446;8.666;2022-11-20T18:26:24;5.67;;;1.93;;
74894;SDS011;63447;49.446;8.666;2022-11-20T18:28:52;4.97;;;1.50;;
74894;SDS011;63447;49.446;8.666;2022-11-20T18:31:18;6.75;;;2.55;;
74894;SDS011;63447;49.446;8.666;2022-11-20T18:33:44;7.70;;;2.30;;
74894;SDS011;63447;49.446;8.666;2022-11-20T18:38:40;5.07;;;1.52;;
74894;SDS011;63447;49.446;8.666;2022-11-20T18:41:09;4.95;;;1.95;;
74894;SDS011;63447;49.446;8.666;2022-11-20T18:43:55;4.78;;;1.40;;
74894;SDS011;63447;49.446;8.666;2022-11-20T18:49:06;4.10;;;1.45;;
74894;SDS011;63447;49.446;8.666;2022-11-20T18:51:36;3.88;;;1.58;;
74894;SDS011;63447;49.446;8.666;2022-11-20T18:54:04;6.60;;;1.70;;
74894;SDS011;63447;49.446;8.666;2022-11-20T18:56:31;6.88;;;1.58;;
74894;SDS011;63447;49.446;8.666;2022-11-20T18:59:02;9.48;;;2.42;;
74894;SDS011;63447;49.446;8.666;2022-11-20T19:01:29;4.50;;;1.73;;
74894;SDS011;63447;49.446;8.666;2022-11-20T19:06:21;4.95;;;1.95;;
74894;SDS011;63447;49.446;8.666;2022-11-20T19:08:49;12.30;;;3.92;;
74894;SDS011;63447;49.446;8.666;2022-11-20T19:11:15;18.85;;;6.72;;